sensor_id;sensor_type;location;lat;lon;timestamp;temperature;humidity
75865;HTU21D;64510;46.704;38.274;2023-04-03T00:01:36;8.80;62.73
75865;HTU21D;64510;46.704;38.274;2023-04-03T00:04:05;8.85;62.63
75865;HTU21D;64510;46.704;38.274;2023-04-03T00:06:31;8.89;62.65
75865;HTU21D;64510;46.704;38.274;2023-04-03T00:08:57;8.91;62.64
75865;HTU21D;64510;46.704;38.274;2023-04-03T00:11:23;8.94;62.64
75865;HTU21D;64510;46.704;38.274;2023-04-03T00:13:49;8.96;62.69
75865;HTU21D;64510;46.704;38.274;2023-04-03T00:16:15;8.95;62.70
75865;HTU21D;64510;46.704;38.274;2023-04-03T00:18:41;8.91;62.79
75865;HTU21D;64510;46.704;38.274;2023-04-03T00:21:09;8.83;62.94
75865;HTU21D;64510;46.704;38.274;2023-04-03T00:23:35;8.76;63.11
75865;HTU21D;64510;46.704;38.274;2023-04-03T00:26:01;8.71;63.25
75865;HTU21D;64510;46.704;38.274;2023-04-03T00:28:27;8.65;63.39
75865;HTU21D;64510;46.704;38.274;2023-04-03T00:30:53;8.63;63.44
75865;HTU21D;64510;46.704;38.274;2023-04-03T00:33:19;8.62;63.50
75865;HTU21D;64510;46.704;38.274;2023-04-03T00:35:50;8.62;63.43
75865;HTU21D;64510;46.704;38.274;2023-04-03T00:38:17;8.64;63.55
75865;HTU21D;64510;46.704;38.274;2023-04-03T00:40:46;8.66;63.40
75865;HTU21D;64510;46.704;38.274;2023-04-03T00:43:15;8.67;63.35
75865;HTU21D;64510;46.704;38.274;2023-04-03T00:45:44;8.64;63.40
75865;HTU21D;64510;46.704;38.274;2023-04-03T00:48:15;8.56;63.52
75865;HTU21D;64510;46.704;38.274;2023-04-03T00:50:42;8.47;63.66
75865;HTU21D;64510;46.704;38.274;2023-04-03T00:53:13;8.36;63.90
75865;HTU21D;64510;46.704;38.274;2023-04-03T00:55:39;8.31;64.03
75865;HTU21D;64510;46.704;38.274;2023-04-03T00:58:06;8.21;64.11
75865;HTU21D;64510;46.704;38.274;2023-04-03T01:00:33;8.14;64.27
75865;HTU21D;64510;46.704;38.274;2023-04-03T01:02:59;8.11;64.35
75865;HTU21D;64510;46.704;38.274;2023-04-03T01:05:26;8.12;64.39
75865;HTU21D;64510;46.704;38.274;2023-04-03T01:07:53;8.18;64.31
75865;HTU21D;64510;46.704;38.274;2023-04-03T01:10:19;8.27;64.22
75865;HTU21D;64510;46.704;38.274;2023-04-03T01:12:48;8.36;64.11
75865;HTU21D;64510;46.704;38.274;2023-04-03T01:15:24;8.46;64.00
75865;HTU21D;64510;46.704;38.274;2023-04-03T01:17:55;8.56;63.93
75865;HTU21D;64510;46.704;38.274;2023-04-03T01:25:57;8.76;63.81
75865;HTU21D;64510;46.704;38.274;2023-04-03T01:28:33;8.81;63.87
75865;HTU21D;64510;46.704;38.274;2023-04-03T01:33:35;8.93;63.93
75865;HTU21D;64510;46.704;38.274;2023-04-03T01:36:03;8.98;63.90
75865;HTU21D;64510;46.704;38.274;2023-04-03T01:38:29;9.04;63.95
75865;HTU21D;64510;46.704;38.274;2023-04-03T01:40:55;9.09;64.05
75865;HTU21D;64510;46.704;38.274;2023-04-03T01:43:21;9.12;64.07
75865;HTU21D;64510;46.704;38.274;2023-04-03T01:45:47;9.17;64.15
75865;HTU21D;64510;46.704;38.274;2023-04-03T01:48:16;9.22;64.22
75865;HTU21D;64510;46.704;38.274;2023-04-03T01:50:42;9.26;64.29
75865;HTU21D;64510;46.704;38.274;2023-04-03T01:53:09;9.32;64.37
75865;HTU21D;64510;46.704;38.274;2023-04-03T01:55:35;9.35;64.39
75865;HTU21D;64510;46.704;38.274;2023-04-03T01:58:01;9.40;64.64
75865;HTU21D;64510;46.704;38.274;2023-04-03T02:00:27;9.45;64.74
75865;HTU21D;64510;46.704;38.274;2023-04-03T02:02:53;9.48;64.66
75865;HTU21D;64510;46.704;38.274;2023-04-03T02:05:19;9.50;64.72
75865;HTU21D;64510;46.704;38.274;2023-04-03T02:07:45;9.54;64.82
75865;HTU21D;64510;46.704;38.274;2023-04-03T02:10:11;9.56;64.84
75865;HTU21D;64510;46.704;38.274;2023-04-03T02:12:37;9.59;64.85
75865;HTU21D;64510;46.704;38.274;2023-04-03T02:15:04;9.61;64.94
75865;HTU21D;64510;46.704;38.274;2023-04-03T02:17:30;9.65;64.95
75865;HTU21D;64510;46.704;38.274;2023-04-03T02:19:56;9.69;64.99
75865;HTU21D;64510;46.704;38.274;2023-04-03T02:22:23;9.70;65.07
75865;HTU21D;64510;46.704;38.274;2023-04-03T02:24:50;9.71;65.17
75865;HTU21D;64510;46.704;38.274;2023-04-03T02:27:17;9.72;65.21
75865;HTU21D;64510;46.704;38.274;2023-04-03T02:29:43;9.70;65.28
75865;HTU21D;64510;46.704;38.274;2023-04-03T02:32:09;9.72;65.35
75865;HTU21D;64510;46.704;38.274;2023-04-03T02:34:35;9.71;65.44
75865;HTU21D;64510;46.704;38.274;2023-04-03T02:37:02;9.72;65.56
75865;HTU21D;64510;46.704;38.274;2023-04-03T02:39:28;9.72;65.66
75865;HTU21D;64510;46.704;38.274;2023-04-03T02:41:55;9.71;65.75
75865;HTU21D;64510;46.704;38.274;2023-04-03T02:44:24;9.71;65.78
75865;HTU21D;64510;46.704;38.274;2023-04-03T02:46:50;9.72;65.88
75865;HTU21D;64510;46.704;38.274;2023-04-03T02:49:16;9.72;65.88
75865;HTU21D;64510;46.704;38.274;2023-04-03T02:51:42;9.74;65.88
75865;HTU21D;64510;46.704;38.274;2023-04-03T02:54:09;9.71;66.02
75865;HTU21D;64510;46.704;38.274;2023-04-03T02:56:38;9.71;66.07
75865;HTU21D;64510;46.704;38.274;2023-04-03T02:59:05;9.70;66.14
75865;HTU21D;64510;46.704;38.274;2023-04-03T03:01:34;9.71;66.24
75865;HTU21D;64510;46.704;38.274;2023-04-03T03:04:01;9.71;66.30
75865;HTU21D;64510;46.704;38.274;2023-04-03T03:06:27;9.72;66.30
75865;HTU21D;64510;46.704;38.274;2023-04-03T03:08:54;9.72;66.33
75865;HTU21D;64510;46.704;38.274;2023-04-03T03:11:20;9.70;66.43
75865;HTU21D;64510;46.704;38.274;2023-04-03T03:13:46;9.72;66.47
75865;HTU21D;64510;46.704;38.274;2023-04-03T03:16:12;9.72;66.50
75865;HTU21D;64510;46.704;38.274;2023-04-03T03:18:38;9.72;66.55
75865;HTU21D;64510;46.704;38.274;2023-04-03T03:21:04;9.72;66.62
75865;HTU21D;64510;46.704;38.274;2023-04-03T03:23:31;9.71;66.69
75865;HTU21D;64510;46.704;38.274;2023-04-03T03:26:00;9.71;66.73
75865;HTU21D;64510;46.704;38.274;2023-04-03T03:28:26;9.74;66.81
75865;HTU21D;64510;46.704;38.274;2023-04-03T03:30:52;9.76;66.91
75865;HTU21D;64510;46.704;38.274;2023-04-03T03:33:19;9.75;66.98
75865;HTU21D;64510;46.704;38.274;2023-04-03T03:35:45;9.77;67.14
75865;HTU21D;64510;46.704;38.274;2023-04-03T03:38:12;9.76;67.10
75865;HTU21D;64510;46.704;38.274;2023-04-03T03:40:38;9.77;67.17
75865;HTU21D;64510;46.704;38.274;2023-04-03T03:43:04;9.78;67.23
75865;HTU21D;64510;46.704;38.274;2023-04-03T03:45:31;9.78;67.29
75865;HTU21D;64510;46.704;38.274;2023-04-03T03:47:57;9.80;67.31
75865;HTU21D;64510;46.704;38.274;2023-04-03T03:50:23;9.81;67.43
75865;HTU21D;64510;46.704;38.274;2023-04-03T03:52:50;9.84;67.41
75865;HTU21D;64510;46.704;38.274;2023-04-03T03:55:16;9.83;67.48
75865;HTU21D;64510;46.704;38.274;2023-04-03T03:57:43;9.86;67.68
75865;HTU21D;64510;46.704;38.274;2023-04-03T04:00:10;9.88;67.78
75865;HTU21D;64510;46.704;38.274;2023-04-03T04:02:44;9.90;67.93
75865;HTU21D;64510;46.704;38.274;2023-04-03T04:05:14;9.89;67.92
75865;HTU21D;64510;46.704;38.274;2023-04-03T04:07:40;9.93;67.94
75865;HTU21D;64510;46.704;38.274;2023-04-03T04:10:06;9.96;67.96
75865;HTU21D;64510;46.704;38.274;2023-04-03T04:12:32;10.00;67.96
75865;HTU21D;64510;46.704;38.274;2023-04-03T04:14:58;10.07;67.97
75865;HTU21D;64510;46.704;38.274;2023-04-03T04:17:24;10.12;67.97
75865;HTU21D;64510;46.704;38.274;2023-04-03T04:19:51;10.19;67.94
75865;HTU21D;64510;46.704;38.274;2023-04-03T04:22:17;10.25;67.87
75865;HTU21D;64510;46.704;38.274;2023-04-03T04:24:43;10.31;67.88
75865;HTU21D;64510;46.704;38.274;2023-04-03T04:27:09;10.35;67.99
75865;HTU21D;64510;46.704;38.274;2023-04-03T04:29:36;10.40;68.13
75865;HTU21D;64510;46.704;38.274;2023-04-03T04:32:05;10.44;68.30
75865;HTU21D;64510;46.704;38.274;2023-04-03T04:34:31;10.51;68.26
75865;HTU21D;64510;46.704;38.274;2023-04-03T04:36:58;10.57;68.26
75865;HTU21D;64510;46.704;38.274;2023-04-03T04:39:25;10.65;68.35
75865;HTU21D;64510;46.704;38.274;2023-04-03T04:41:52;10.66;68.67
75865;HTU21D;64510;46.704;38.274;2023-04-03T04:44:18;10.67;68.89
75865;HTU21D;64510;46.704;38.274;2023-04-03T04:46:44;10.73;68.97
75865;HTU21D;64510;46.704;38.274;2023-04-03T04:49:10;10.78;69.06
75865;HTU21D;64510;46.704;38.274;2023-04-03T04:51:37;10.83;69.17
75865;HTU21D;64510;46.704;38.274;2023-04-03T04:54:03;10.87;69.29
75865;HTU21D;64510;46.704;38.274;2023-04-03T04:56:29;10.94;69.32
75865;HTU21D;64510;46.704;38.274;2023-04-03T04:58:56;10.97;69.45
75865;HTU21D;64510;46.704;38.274;2023-04-03T05:01:23;11.02;69.45
75865;HTU21D;64510;46.704;38.274;2023-04-03T05:04:12;11.12;69.75
75865;HTU21D;64510;46.704;38.274;2023-04-03T05:06:39;11.29;69.65
75865;HTU21D;64510;46.704;38.274;2023-04-03T05:09:10;11.61;69.49
75865;HTU21D;64510;46.704;38.274;2023-04-03T05:11:37;11.85;69.51
75865;HTU21D;64510;46.704;38.274;2023-04-03T05:14:04;12.27;69.92
75865;HTU21D;64510;46.704;38.274;2023-04-03T05:16:33;12.71;69.61
75865;HTU21D;64510;46.704;38.274;2023-04-03T05:18:59;12.97;69.51
75865;HTU21D;64510;46.704;38.274;2023-04-03T05:21:26;13.15;69.58
75865;HTU21D;64510;46.704;38.274;2023-04-03T05:23:55;13.33;70.29
75865;HTU21D;64510;46.704;38.274;2023-04-03T05:26:21;13.60;70.50
75865;HTU21D;64510;46.704;38.274;2023-04-03T05:28:49;14.07;71.04
75865;HTU21D;64510;46.704;38.274;2023-04-03T05:31:15;14.57;70.74
75865;HTU21D;64510;46.704;38.274;2023-04-03T05:33:41;14.79;70.54
75865;HTU21D;64510;46.704;38.274;2023-04-03T05:36:11;15.06;70.42
75865;HTU21D;64510;46.704;38.274;2023-04-03T05:38:42;15.07;70.04
75865;HTU21D;64510;46.704;38.274;2023-04-03T05:41:09;14.93;70.12
75865;HTU21D;64510;46.704;38.274;2023-04-03T05:43:34;14.71;70.41
75865;HTU21D;64510;46.704;38.274;2023-04-03T05:46:03;14.57;70.63
75865;HTU21D;64510;46.704;38.274;2023-04-03T05:48:30;14.38;71.06
75865;HTU21D;64510;46.704;38.274;2023-04-03T05:50:56;14.18;71.64
75865;HTU21D;64510;46.704;38.274;2023-04-03T05:53:27;13.98;72.12
75865;HTU21D;64510;46.704;38.274;2023-04-03T05:55:57;13.91;72.21
75865;HTU21D;64510;46.704;38.274;2023-04-03T05:58:24;13.84;72.51
75865;HTU21D;64510;46.704;38.274;2023-04-03T06:00:51;13.83;72.39
75865;HTU21D;64510;46.704;38.274;2023-04-03T06:03:18;13.92;72.03
75865;HTU21D;64510;46.704;38.274;2023-04-03T06:05:44;14.03;71.77
75865;HTU21D;64510;46.704;38.274;2023-04-03T06:08:11;14.05;71.51
75865;HTU21D;64510;46.704;38.274;2023-04-03T06:10:38;14.06;71.28
75865;HTU21D;64510;46.704;38.274;2023-04-03T06:13:05;14.07;71.16
75865;HTU21D;64510;46.704;38.274;2023-04-03T06:15:31;14.12;71.12
75865;HTU21D;64510;46.704;38.274;2023-04-03T06:17:57;14.21;70.92
75865;HTU21D;64510;46.704;38.274;2023-04-03T06:20:23;14.26;70.90
75865;HTU21D;64510;46.704;38.274;2023-04-03T06:22:49;14.32;70.85
75865;HTU21D;64510;46.704;38.274;2023-04-03T06:25:16;14.35;70.89
75865;HTU21D;64510;46.704;38.274;2023-04-03T06:27:44;14.35;70.99
75865;HTU21D;64510;46.704;38.274;2023-04-03T06:30:11;14.34;71.02
75865;HTU21D;64510;46.704;38.274;2023-04-03T06:32:37;14.34;71.27
75865;HTU21D;64510;46.704;38.274;2023-04-03T06:35:04;14.47;71.84
75865;HTU21D;64510;46.704;38.274;2023-04-03T06:37:30;14.65;71.84
75865;HTU21D;64510;46.704;38.274;2023-04-03T06:39:58;14.91;71.90
75865;HTU21D;64510;46.704;38.274;2023-04-03T06:42:25;15.16;71.52
75865;HTU21D;64510;46.704;38.274;2023-04-03T06:44:58;15.43;71.29
75865;HTU21D;64510;46.704;38.274;2023-04-03T06:47:24;15.51;70.99
75865;HTU21D;64510;46.704;38.274;2023-04-03T06:49:50;15.58;70.84
75865;HTU21D;64510;46.704;38.274;2023-04-03T06:52:16;15.53;70.74
75865;HTU21D;64510;46.704;38.274;2023-04-03T06:54:42;15.42;70.89
75865;HTU21D;64510;46.704;38.274;2023-04-03T06:57:08;15.41;71.11
75865;HTU21D;64510;46.704;38.274;2023-04-03T06:59:34;15.49;71.13
75865;HTU21D;64510;46.704;38.274;2023-04-03T07:02:02;15.66;71.18
75865;HTU21D;64510;46.704;38.274;2023-04-03T07:04:28;15.62;71.29
75865;HTU21D;64510;46.704;38.274;2023-04-03T07:06:54;15.62;71.22
75865;HTU21D;64510;46.704;38.274;2023-04-03T07:09:19;15.59;71.21
75865;HTU21D;64510;46.704;38.274;2023-04-03T07:11:46;15.65;71.28
75865;HTU21D;64510;46.704;38.274;2023-04-03T07:14:12;15.78;71.07
75865;HTU21D;64510;46.704;38.274;2023-04-03T07:16:37;15.99;71.05
75865;HTU21D;64510;46.704;38.274;2023-04-03T07:19:03;16.14;70.80
75865;HTU21D;64510;46.704;38.274;2023-04-03T07:21:29;16.20;70.70
75865;HTU21D;64510;46.704;38.274;2023-04-03T07:23:55;16.27;70.64
75865;HTU21D;64510;46.704;38.274;2023-04-03T07:26:22;16.34;70.66
75865;HTU21D;64510;46.704;38.274;2023-04-03T07:28:48;16.45;70.41
75865;HTU21D;64510;46.704;38.274;2023-04-03T07:31:16;16.54;70.68
75865;HTU21D;64510;46.704;38.274;2023-04-03T07:33:43;16.73;70.36
75865;HTU21D;64510;46.704;38.274;2023-04-03T07:36:10;16.79;70.19
75865;HTU21D;64510;46.704;38.274;2023-04-03T07:38:36;17.05;70.18
75865;HTU21D;64510;46.704;38.274;2023-04-03T07:41:03;17.23;69.78
75865;HTU21D;64510;46.704;38.274;2023-04-03T07:43:29;17.31;69.57
75865;HTU21D;64510;46.704;38.274;2023-04-03T07:45:55;17.56;69.65
75865;HTU21D;64510;46.704;38.274;2023-04-03T07:48:23;17.95;69.36
75865;HTU21D;64510;46.704;38.274;2023-04-03T07:50:51;18.23;69.04
75865;HTU21D;64510;46.704;38.274;2023-04-03T07:53:17;18.65;68.54
75865;HTU21D;64510;46.704;38.274;2023-04-03T07:55:46;19.01;67.02
75865;HTU21D;64510;46.704;38.274;2023-04-03T07:58:14;18.88;66.57
75865;HTU21D;64510;46.704;38.274;2023-04-03T08:00:40;18.94;66.36
75865;HTU21D;64510;46.704;38.274;2023-04-03T08:03:08;19.12;65.78
75865;HTU21D;64510;46.704;38.274;2023-04-03T08:05:40;19.08;64.66
75865;HTU21D;64510;46.704;38.274;2023-04-03T08:08:08;19.09;64.55
75865;HTU21D;64510;46.704;38.274;2023-04-03T08:10:34;19.29;64.05
75865;HTU21D;64510;46.704;38.274;2023-04-03T08:13:02;19.62;63.38
75865;HTU21D;64510;46.704;38.274;2023-04-03T08:15:29;19.81;62.41
75865;HTU21D;64510;46.704;38.274;2023-04-03T08:17:55;19.79;61.90
75865;HTU21D;64510;46.704;38.274;2023-04-03T08:20:21;19.48;61.75
75865;HTU21D;64510;46.704;38.274;2023-04-03T08:22:47;19.37;62.06
75865;HTU21D;64510;46.704;38.274;2023-04-03T08:25:13;19.53;61.50
75865;HTU21D;64510;46.704;38.274;2023-04-03T08:27:39;19.60;60.64
75865;HTU21D;64510;46.704;38.274;2023-04-03T08:30:06;19.46;59.91
75865;HTU21D;64510;46.704;38.274;2023-04-03T08:32:36;19.26;59.71
75865;HTU21D;64510;46.704;38.274;2023-04-03T08:35:03;19.18;59.53
75865;HTU21D;64510;46.704;38.274;2023-04-03T08:37:29;19.12;59.45
75865;HTU21D;64510;46.704;38.274;2023-04-03T08:39:54;19.06;59.42
75865;HTU21D;64510;46.704;38.274;2023-04-03T08:45:59;19.00;59.24
75865;HTU21D;64510;46.704;38.274;2023-04-03T08:48:33;18.94;58.89
75865;HTU21D;64510;46.704;38.274;2023-04-03T08:51:04;18.81;58.93
75865;HTU21D;64510;46.704;38.274;2023-04-03T08:53:40;18.55;59.14
75865;HTU21D;64510;46.704;38.274;2023-04-03T08:56:08;18.32;59.92
75865;HTU21D;64510;46.704;38.274;2023-04-03T08:58:50;18.25;59.77
75865;HTU21D;64510;46.704;38.274;2023-04-03T09:01:33;18.35;59.53
75865;HTU21D;64510;46.704;38.274;2023-04-03T09:04:10;18.26;59.41
75865;HTU21D;64510;46.704;38.274;2023-04-03T09:06:38;18.20;59.63
75865;HTU21D;64510;46.704;38.274;2023-04-03T09:09:35;18.26;59.38
75865;HTU21D;64510;46.704;38.274;2023-04-03T09:14:59;18.21;59.06
75865;HTU21D;64510;46.704;38.274;2023-04-03T09:22:57;17.88;59.51
75865;HTU21D;64510;46.704;38.274;2023-04-03T09:27:51;17.84;59.43
75865;HTU21D;64510;46.704;38.274;2023-04-03T09:30:24;17.87;59.14
75865;HTU21D;64510;46.704;38.274;2023-04-03T09:32:53;17.88;59.19
75865;HTU21D;64510;46.704;38.274;2023-04-03T09:35:33;17.85;58.96
75865;HTU21D;64510;46.704;38.274;2023-04-03T09:38:13;17.85;59.16
75865;HTU21D;64510;46.704;38.274;2023-04-03T09:43:51;17.67;59.26
75865;HTU21D;64510;46.704;38.274;2023-04-03T09:46:33;17.63;59.29
75865;HTU21D;64510;46.704;38.274;2023-04-03T09:49:03;17.62;59.36
75865;HTU21D;64510;46.704;38.274;2023-04-03T09:51:30;17.69;59.19
75865;HTU21D;64510;46.704;38.274;2023-04-03T09:53:57;17.66;58.96
75865;HTU21D;64510;46.704;38.274;2023-04-03T09:58:51;17.30;59.41
75865;HTU21D;64510;46.704;38.274;2023-04-03T10:01:33;17.14;59.64
75865;HTU21D;64510;46.704;38.274;2023-04-03T10:04:17;17.00;59.73
75865;HTU21D;64510;46.704;38.274;2023-04-03T10:06:48;16.87;60.11
75865;HTU21D;64510;46.704;38.274;2023-04-03T10:09:20;16.77;60.25
75865;HTU21D;64510;46.704;38.274;2023-04-03T10:12:10;16.72;60.35
75865;HTU21D;64510;46.704;38.274;2023-04-03T10:14:40;16.65;60.43
75865;HTU21D;64510;46.704;38.274;2023-04-03T10:20:43;16.31;60.99
75865;HTU21D;64510;46.704;38.274;2023-04-03T10:23:33;16.17;61.27
75865;HTU21D;64510;46.704;38.274;2023-04-03T10:26:24;16.02;61.55
75865;HTU21D;64510;46.704;38.274;2023-04-03T10:32:02;15.87;61.89
75865;HTU21D;64510;46.704;38.274;2023-04-03T10:34:37;15.88;61.81
75865;HTU21D;64510;46.704;38.274;2023-04-03T10:42:46;16.15;61.23
75865;HTU21D;64510;46.704;38.274;2023-04-03T10:48:38;16.16;61.14
75865;HTU21D;64510;46.704;38.274;2023-04-03T10:51:56;16.12;61.14
75865;HTU21D;64510;46.704;38.274;2023-04-03T10:54:13;16.13;61.17
75865;HTU21D;64510;46.704;38.274;2023-04-03T10:56:42;16.08;61.21
75865;HTU21D;64510;46.704;38.274;2023-04-03T11:02:00;16.02;61.25
75865;HTU21D;64510;46.704;38.274;2023-04-03T11:04:28;15.90;61.53
75865;HTU21D;64510;46.704;38.274;2023-04-03T11:07:03;15.91;61.36
75865;HTU21D;64510;46.704;38.274;2023-04-03T11:09:35;15.89;61.27
75865;HTU21D;64510;46.704;38.274;2023-04-03T11:14:37;15.76;61.32
75865;HTU21D;64510;46.704;38.274;2023-04-03T11:20:04;15.59;61.67
75865;HTU21D;64510;46.704;38.274;2023-04-03T11:22:42;15.65;61.50
75865;HTU21D;64510;46.704;38.274;2023-04-03T11:28:04;15.61;61.48
75865;HTU21D;64510;46.704;38.274;2023-04-03T11:30:59;15.46;61.76
75865;HTU21D;64510;46.704;38.274;2023-04-03T11:38:37;15.44;61.99
75865;HTU21D;64510;46.704;38.274;2023-04-03T11:41:07;15.44;61.99
75865;HTU21D;64510;46.704;38.274;2023-04-03T11:43:37;15.44;61.96
75865;HTU21D;64510;46.704;38.274;2023-04-03T11:46:06;15.45;62.02
75865;HTU21D;64510;46.704;38.274;2023-04-03T11:53:42;15.36;62.37
75865;HTU21D;64510;46.704;38.274;2023-04-03T12:04:19;15.41;62.60
75865;HTU21D;64510;46.704;38.274;2023-04-03T12:12:34;15.91;61.70
75865;HTU21D;64510;46.704;38.274;2023-04-03T12:17:48;16.24;61.25
75865;HTU21D;64510;46.704;38.274;2023-04-03T12:23:36;16.44;61.04
75865;HTU21D;64510;46.704;38.274;2023-04-03T12:26:21;16.51;61.00
75865;HTU21D;64510;46.704;38.274;2023-04-03T12:28:48;16.52;60.89
75865;HTU21D;64510;46.704;38.274;2023-04-03T12:31:16;16.57;61.00
75865;HTU21D;64510;46.704;38.274;2023-04-03T12:36:32;16.67;60.48
75865;HTU21D;64510;46.704;38.274;2023-04-03T12:42:45;16.28;61.23
75865;HTU21D;64510;46.704;38.274;2023-04-03T12:47:32;16.20;61.36
75865;HTU21D;64510;46.704;38.274;2023-04-03T12:50:03;16.17;61.31
75865;HTU21D;64510;46.704;38.274;2023-04-03T12:52:33;16.05;61.43
75865;HTU21D;64510;46.704;38.274;2023-04-03T12:55:02;15.98;61.70
75865;HTU21D;64510;46.704;38.274;2023-04-03T12:57:30;15.97;61.80
75865;HTU21D;64510;46.704;38.274;2023-04-03T12:59:56;16.02;61.67
75865;HTU21D;64510;46.704;38.274;2023-04-03T13:02:27;16.07;61.47
75865;HTU21D;64510;46.704;38.274;2023-04-03T13:04:55;16.06;61.56
75865;HTU21D;64510;46.704;38.274;2023-04-03T13:07:30;15.99;61.65
75865;HTU21D;64510;46.704;38.274;2023-04-03T13:10:02;15.92;61.84
75865;HTU21D;64510;46.704;38.274;2023-04-03T13:12:29;16.02;61.76
75865;HTU21D;64510;46.704;38.274;2023-04-03T13:14:59;16.15;61.44
75865;HTU21D;64510;46.704;38.274;2023-04-03T13:17:26;16.16;61.41
75865;HTU21D;64510;46.704;38.274;2023-04-03T13:19:53;16.18;61.36
75865;HTU21D;64510;46.704;38.274;2023-04-03T13:22:47;16.15;61.35
75865;HTU21D;64510;46.704;38.274;2023-04-03T13:25:13;16.05;61.44
75865;HTU21D;64510;46.704;38.274;2023-04-03T13:27:40;15.96;61.61
75865;HTU21D;64510;46.704;38.274;2023-04-03T13:32:45;15.80;61.79
75865;HTU21D;64510;46.704;38.274;2023-04-03T13:35:44;15.71;62.00
75865;HTU21D;64510;46.704;38.274;2023-04-03T13:40:54;15.51;62.31
75865;HTU21D;64510;46.704;38.274;2023-04-03T13:43:25;15.44;62.51
75865;HTU21D;64510;46.704;38.274;2023-04-03T13:46:05;15.39;62.56
75865;HTU21D;64510;46.704;38.274;2023-04-03T13:48:51;15.40;62.46
75865;HTU21D;64510;46.704;38.274;2023-04-03T13:51:26;15.39;62.45
75865;HTU21D;64510;46.704;38.274;2023-04-03T13:54:00;15.26;62.60
75865;HTU21D;64510;46.704;38.274;2023-04-03T13:56:34;15.04;63.13
75865;HTU21D;64510;46.704;38.274;2023-04-03T14:02:09;14.82;63.65
75865;HTU21D;64510;46.704;38.274;2023-04-03T14:04:46;14.73;63.81
75865;HTU21D;64510;46.704;38.274;2023-04-03T14:07:15;14.72;63.85
75865;HTU21D;64510;46.704;38.274;2023-04-03T14:09:41;14.72;63.82
75865;HTU21D;64510;46.704;38.274;2023-04-03T14:12:35;14.74;63.84
75865;HTU21D;64510;46.704;38.274;2023-04-03T14:15:06;14.77;63.76
75865;HTU21D;64510;46.704;38.274;2023-04-03T14:17:36;14.79;63.74
75865;HTU21D;64510;46.704;38.274;2023-04-03T14:20:02;14.80;63.81
75865;HTU21D;64510;46.704;38.274;2023-04-03T14:22:31;14.80;63.80
75865;HTU21D;64510;46.704;38.274;2023-04-03T14:24:58;14.72;63.96
75865;HTU21D;64510;46.704;38.274;2023-04-03T14:27:27;14.63;64.21
75865;HTU21D;64510;46.704;38.274;2023-04-03T14:29:55;14.52;64.47
75865;HTU21D;64510;46.704;38.274;2023-04-03T14:32:23;14.45;64.68
75865;HTU21D;64510;46.704;38.274;2023-04-03T14:34:51;14.42;64.77
75865;HTU21D;64510;46.704;38.274;2023-04-03T14:37:23;14.42;64.95
75865;HTU21D;64510;46.704;38.274;2023-04-03T14:39:51;14.37;65.04
75865;HTU21D;64510;46.704;38.274;2023-04-03T14:42:22;14.29;65.33
75865;HTU21D;64510;46.704;38.274;2023-04-03T14:44:48;14.23;65.60
75865;HTU21D;64510;46.704;38.274;2023-04-03T14:47:26;14.18;65.83
75865;HTU21D;64510;46.704;38.274;2023-04-03T14:49:53;14.14;65.91
75865;HTU21D;64510;46.704;38.274;2023-04-03T14:52:25;14.08;66.07
75865;HTU21D;64510;46.704;38.274;2023-04-03T14:54:52;14.00;66.27
75865;HTU21D;64510;46.704;38.274;2023-04-03T14:57:18;13.91;66.55
75865;HTU21D;64510;46.704;38.274;2023-04-03T14:59:45;13.83;66.85
75865;HTU21D;64510;46.704;38.274;2023-04-03T15:04:55;13.71;67.16
75865;HTU21D;64510;46.704;38.274;2023-04-03T15:07:22;13.67;67.33
75865;HTU21D;64510;46.704;38.274;2023-04-03T15:09:49;13.64;67.40
75865;HTU21D;64510;46.704;38.274;2023-04-03T15:12:15;13.59;67.41
75865;HTU21D;64510;46.704;38.274;2023-04-03T15:14:41;13.54;67.73
75865;HTU21D;64510;46.704;38.274;2023-04-03T15:17:15;13.46;67.96
75865;HTU21D;64510;46.704;38.274;2023-04-03T15:19:41;13.40;68.03
75865;HTU21D;64510;46.704;38.274;2023-04-03T15:22:13;13.36;68.34
75865;HTU21D;64510;46.704;38.274;2023-04-03T15:24:39;13.30;68.39
75865;HTU21D;64510;46.704;38.274;2023-04-03T15:27:05;13.22;68.64
75865;HTU21D;64510;46.704;38.274;2023-04-03T15:29:31;13.17;68.84
75865;HTU21D;64510;46.704;38.274;2023-04-03T15:31:57;13.09;69.03
75865;HTU21D;64510;46.704;38.274;2023-04-03T15:34:23;13.01;69.42
75865;HTU21D;64510;46.704;38.274;2023-04-03T15:36:49;12.91;69.85
75865;HTU21D;64510;46.704;38.274;2023-04-03T15:39:18;12.84;70.17
75865;HTU21D;64510;46.704;38.274;2023-04-03T15:41:44;12.79;70.29
75865;HTU21D;64510;46.704;38.274;2023-04-03T15:44:10;12.77;70.54
75865;HTU21D;64510;46.704;38.274;2023-04-03T15:46:38;12.72;70.71
75865;HTU21D;64510;46.704;38.274;2023-04-03T15:49:04;12.69;70.90
75865;HTU21D;64510;46.704;38.274;2023-04-03T15:51:31;12.65;71.03
75865;HTU21D;64510;46.704;38.274;2023-04-03T15:53:57;12.57;71.41
75865;HTU21D;64510;46.704;38.274;2023-04-03T15:56:23;12.49;71.55
75865;HTU21D;64510;46.704;38.274;2023-04-03T15:58:49;12.41;71.71
75865;HTU21D;64510;46.704;38.274;2023-04-03T16:01:15;12.35;72.00
75865;HTU21D;64510;46.704;38.274;2023-04-03T16:03:42;12.30;72.09
75865;HTU21D;64510;46.704;38.274;2023-04-03T16:06:18;12.21;72.45
75865;HTU21D;64510;46.704;38.274;2023-04-03T16:08:45;12.14;72.61
75865;HTU21D;64510;46.704;38.274;2023-04-03T16:11:12;12.07;72.84
75865;HTU21D;64510;46.704;38.274;2023-04-03T16:13:38;12.02;73.01
75865;HTU21D;64510;46.704;38.274;2023-04-03T16:16:04;11.97;73.30
75865;HTU21D;64510;46.704;38.274;2023-04-03T16:18:30;11.93;73.45
75865;HTU21D;64510;46.704;38.274;2023-04-03T16:20:57;11.96;73.58
75865;HTU21D;64510;46.704;38.274;2023-04-03T16:23:24;11.99;73.64
75865;HTU21D;64510;46.704;38.274;2023-04-03T16:25:50;12.01;73.66
75865;HTU21D;64510;46.704;38.274;2023-04-03T16:28:17;12.02;73.81
75865;HTU21D;64510;46.704;38.274;2023-04-03T16:30:44;12.02;73.93
75865;HTU21D;64510;46.704;38.274;2023-04-03T16:33:12;12.02;74.07
75865;HTU21D;64510;46.704;38.274;2023-04-03T16:35:38;12.03;74.20
75865;HTU21D;64510;46.704;38.274;2023-04-03T16:38:05;12.04;74.27
75865;HTU21D;64510;46.704;38.274;2023-04-03T16:40:30;12.05;74.45
75865;HTU21D;64510;46.704;38.274;2023-04-03T16:42:56;12.06;74.86
75865;HTU21D;64510;46.704;38.274;2023-04-03T16:45:22;12.05;75.15
75865;HTU21D;64510;46.704;38.274;2023-04-03T16:47:48;12.05;75.57
75865;HTU21D;64510;46.704;38.274;2023-04-03T16:50:14;12.03;76.09
75865;HTU21D;64510;46.704;38.274;2023-04-03T16:52:40;11.98;76.43
75865;HTU21D;64510;46.704;38.274;2023-04-03T16:55:06;11.93;76.87
75865;HTU21D;64510;46.704;38.274;2023-04-03T16:57:32;11.92;77.14
75865;HTU21D;64510;46.704;38.274;2023-04-03T16:59:58;11.91;77.34